Drachten Airfield

EHDR · Friesland, The Netherlands

October 3, 2022

Time Code Weather Temp. Visibility Ceiling Wind METAR/SPECI
00:25
V
10 °C 10 km+ - 270° 270° 5 kt METAR EHLE 022225Z AUTO 27005KT 9999 NCD 10/10 Q1024

October 2, 2022

Time Code Weather Temp. Visibility Ceiling Wind METAR/SPECI
23:55
V
10 °C 10 km+ - 270° 270° 5 kt METAR EHLE 022155Z AUTO 27005KT 9999 FEW028 10/09 Q1024
23:25
V
12 °C 10 km+ 3,000 ft 280° 280° 6 kt METAR EHLE 022125Z AUTO 28006KT 9999 SCT027 BKN030 12/10 Q1023
22:55
V
11 °C 10 km+ - 280° 280° 5 kt METAR EHLE 022055Z AUTO 28005KT 9999 NCD 11/10 Q1023
22:25
V
12 °C 10 km+ - 280° 280° 6 kt METAR EHLE 022025Z AUTO 28006KT 9999 NCD 12/10 Q1023
21:55
V
12 °C 10 km+ 4,500 ft 290° 290° 6 kt METAR EHLE 021955Z AUTO 29006KT 9999 FEW040 BKN045 12/10 Q1023
21:25
V
13 °C 10 km+ 3,900 ft 280° 280° 5 kt METAR EHLE 021925Z AUTO 28005KT 9999 BKN039 OVC043 13/11 Q1022 NOSIG
20:55
V
13 °C 10 km+ 4,300 ft 280° 280° 7 kt METAR EHLE 021855Z AUTO 28007KT 9999 FEW039 BKN043 13/10 Q1022 NOSIG
20:25
V
13 °C 10 km+ 4,300 ft 290° 290° 6 kt METAR EHLE 021825Z AUTO 29006KT 9999 BKN043 13/10 Q1022 NOSIG
19:55
V
13 °C 10 km+ - 300° 300° 8 kt METAR EHLE 021755Z AUTO 30008KT 9999 NCD 13/10 Q1021 NOSIG
19:25
V
14 °C 10 km+ - 300° 300° 8 kt METAR EHLE 021725Z AUTO 30008KT 270V340 9999 NCD 14/10 Q1021 NOSIG
18:55
V
14 °C 10 km+ - 290° 290° 8 kt METAR EHLE 021655Z AUTO 29008KT 9999 NCD 14/10 Q1020 NOSIG
18:25
V
15 °C 10 km+ - 290° 290° 8 kt METAR EHLE 021625Z AUTO 29008KT 260V320 9999 NCD 15/10 Q1020 NOSIG
17:55
V
16 °C 10 km+ - 290° 290° 9 kt METAR EHLE 021555Z AUTO 29009KT 260V320 9999 NCD 16/10 Q1019 NOSIG
17:25
V
16 °C 10 km+ - 300° 300° 9 kt METAR EHLE 021525Z AUTO 30009KT 250V340 9999 NCD 16/10 Q1019 NOSIG
16:55
V
16 °C 10 km+ - 290° 290° 11 kt METAR EHLE 021455Z AUTO 29011KT 270V340 9999 NSC 16/10 Q1019 NOSIG
16:25
V
17 °C 10 km+ - 290° 290° 9 kt METAR EHLE 021425Z AUTO 29009KT 260V340 9999 NCD 17/10 Q1019 NOSIG
15:55
V
17 °C 10 km+ - 310° 310° 12 kt METAR EHLE 021355Z AUTO 31012KT 270V340 9999 NSC 17/10 Q1018 NOSIG
15:25
V
17 °C 10 km+ - 300° 300° 11 kt METAR EHLE 021325Z AUTO 30011KT 260V340 9999 NSC 17/10 Q1018 NOSIG
14:55
V
17 °C 10 km+ - 300° 300° 11 kt METAR EHLE 021255Z AUTO 30011KT 260V340 9999 NCD 17/10 Q1018 NOSIG
14:25
V
17 °C 10 km+ 3,500 ft 300° 300° 10 kt METAR EHLE 021225Z AUTO 30010KT 260V340 9999 FEW029 BKN035 BKN041 17/10 Q1018 NOSIG
13:55
V
17 °C 10 km+ - 290° 290° 12 kt METAR EHLE 021155Z AUTO 29012KT 250V330 9999 NSC 17/11 Q1017 NOSIG
13:25
V
17 °C 10 km+ - 290° 290° 11 kt METAR EHLE 021125Z AUTO 29011KT 260V330 9999 NSC 17/12 Q1017 NOSIG
12:55
V
16 °C 10 km+ - 290° 290° 10 kt METAR EHLE 021055Z AUTO 29010KT 260V320 9999 NSC 16/11 Q1017 NOSIG
12:25
V
17 °C 10 km+ - 280° 280° 10 kt METAR EHLE 021025Z AUTO 28010KT 250V320 9999 NSC 17/12 Q1016 NOSIG
11:55
V
17 °C 10 km+ - 280° 280° 9 kt METAR EHLE 020955Z AUTO 28009KT 250V320 9999 NSC 17/12 Q1016 NOSIG
11:25
V
16 °C 10 km+ - 270° 270° 9 kt METAR EHLE 020925Z AUTO 27009KT 240V310 9999 NSC 16/13 Q1016 NOSIG
10:55
M
15 °C 10 km+ 2,800 ft 270° 270° 8 kt METAR EHLE 020855Z AUTO 27008KT 240V310 9999 SCT024 BKN028 15/13 Q1016 NOSIG
10:25
V
15 °C 10 km+ - 270° 270° 8 kt METAR EHLE 020825Z AUTO 27008KT 240V300 9999 NSC 15/13 Q1015 TEMPO -SHRA SCT020TCU
09:55
V
15 °C 10 km+ - 260° 260° 8 kt METAR EHLE 020755Z AUTO 26008KT 230V290 9999 FEW029 15/13 Q1015 TEMPO -SHRA SCT020TCU
09:25
V
14 °C 10 km+ - 240° 240° 9 kt METAR EHLE 020725Z AUTO 24009KT 9999 NSC 14/12 Q1015 TEMPO -SHRA SCT020TCU
08:55
V
13 °C 10 km+ - 250° 250° 8 kt METAR EHLE 020655Z AUTO 25008KT 9999 SCT020 SCT025 13/12 Q1014 TEMPO -SHRA SCT020TCU
08:25
V
12 °C 10 km+ 3,100 ft 240° 240° 6 kt METAR EHLE 020625Z AUTO 24006KT 9999 FEW019 SCT022 BKN031 12/11 Q1014 NOSIG
07:55
V
12 °C 10 km+ 3,400 ft 220° 220° 7 kt METAR EHLE 020555Z AUTO 22007KT 9999 FEW021 SCT025 BKN034 12/11 Q1014 NOSIG
07:25
V
11 °C 10 km+ - 230° 230° 4 kt METAR EHLE 020525Z AUTO 23004KT 9999 FEW022 11/11 Q1013 REDZ NOSIG
06:55
V
12 °C 10 km+ 4,200 ft 250° 250° 5 kt METAR EHLE 020455Z AUTO 25005KT 9999 FEW027 SCT038 BKN042 12/11 Q1013
06:25
V
12 °C 10 km+ - 230° 230° 6 kt METAR EHLE 020425Z AUTO 23006KT 9999 FEW025 12/11 Q1013
05:55
V
12 °C 10 km+ - 230° 230° 7 kt METAR EHLE 020355Z AUTO 23007KT 9999 NSC 12/11 Q1013
05:25
V
12 °C 10 km+ - 220° 220° 7 kt METAR EHLE 020325Z AUTO 22007KT 9999 FEW026 12/11 Q1013
04:55
V
12 °C 10 km+ - 220° 220° 8 kt METAR EHLE 020255Z AUTO 22008KT 9999 NCD 12/11 Q1013
04:25
V
13 °C 10 km+ - 220° 220° 8 kt METAR EHLE 020225Z AUTO 22008KT 9999 NSC 13/11 Q1012
03:55
V
12 °C 10 km+ - 210° 210° 8 kt METAR EHLE 020155Z AUTO 21008KT 9999 NSC 12/11 Q1012
03:25
V
12 °C 10 km+ - 210° 210° 8 kt METAR EHLE 020125Z AUTO 21008KT 9999 FEW036 12/11 Q1012
02:55
V
12 °C 10 km+ - 230° 230° 9 kt METAR EHLE 020055Z AUTO 23009KT 9999 FEW015CB 12/11 Q1012 REDZ
02:25
V
14 °C 10 km+ 3,700 ft 220° 220° 12 kt METAR EHLE 020025Z AUTO 22012KT 190V250 9999 -DZ FEW026 SCT032 BKN037 14/12 Q1012
01:55
V
13 °C 10 km+ - 210° 210° 8 kt METAR EHLE 012355Z AUTO 21008KT 9999 NSC 13/11 Q1012
01:25
V
13 °C 10 km+ - 250° 250° 11 kt METAR EHLE 012325Z AUTO 25011KT 9999 FEW017CB 13/09 Q1011
00:55
V
13 °C 10 km+ - 250° 250° 20 kt METAR EHLE 012255Z AUTO 25020KT 9999 -RA FEW015CB 13/11 Q1011
00:25
V
13 °C 10 km+ - 210° 210° 9 kt METAR EHLE 012225Z AUTO 21009KT 9999 NCD 13/11 Q1011

October 1, 2022

Time Code Weather Temp. Visibility Ceiling Wind METAR/SPECI
23:55
V
13 °C 10 km+ - 210° 210° 9 kt METAR EHLE 012155Z AUTO 21009KT 9999 NCD 13/11 Q1011
23:25
V
13 °C 10 km+ - 220° 220° 9 kt METAR EHLE 012125Z AUTO 22009KT 9999 FEW042 13/11 Q1011
22:55
V
13 °C 10 km+ - 220° 220° 8 kt METAR EHLE 012055Z AUTO 22008KT 9999 FEW042 SCT047 13/11 Q1010
22:25
V
12 °C 10 km+ - 200° 200° 7 kt METAR EHLE 012025Z AUTO 20007KT 9999 NSC 12/11 Q1010
21:55
V
12 °C 10 km+ - 210° 210° 7 kt METAR EHLE 011955Z AUTO 21007KT 9999 NSC 12/11 Q1010 NOSIG
21:25
V
12 °C 10 km+ - 210° 210° 6 kt METAR EHLE 011925Z AUTO 21006KT 9999 NCD 12/11 Q1010 NOSIG
20:55
V
12 °C 10 km+ - 240° 240° 8 kt METAR EHLE 011855Z AUTO 24008KT 9999 FEW015CB 12/10 Q1009 NOSIG
20:25
V
13 °C 10 km+ - 260° 260° 10 kt METAR EHLE 011825Z AUTO 26010KT 220V290 9999 -RA FEW008 FEW015CB 13/11 Q1009 REUP RERA REDZ NOSIG
19:55
M
13 °C 6 km 4,500 ft 280° 280° 13 kt METAR EHLE 011755Z AUTO 28013KT 230V310 6000 SHRA FEW015CB SCT041 BKN045 13/10 Q1009 REDZ BECMG 9999 NSW
19:25
V
14 °C 10 km+ - 260° 260° 7 kt METAR EHLE 011725Z AUTO 26007KT 9999 -RA NSC 14/11 Q1008 TEMPO 7000 -SHRA SCT025CB
18:55
V
15 °C 10 km+ - 260° 260° 9 kt METAR EHLE 011655Z AUTO 26009KT 9999 NSC 15/10 Q1008 TEMPO 7000 -SHRA SCT025CB
18:25
V
16 °C 10 km+ - 260° 260° 11 kt METAR EHLE 011625Z AUTO 26011KT 230V290 9999 NSC 16/11 Q1007 TEMPO 7000 -SHRA SCT025CB
17:55
V
16 °C 10 km+ - 280° 280° 13 kt METAR EHLE 011555Z AUTO 28013KT 240V320 9999 NCD 16/10 Q1007 TEMPO 7000 -SHRA SCT025CB
17:25
V
16 °C 10 km+ - 280° 280° 14 kt METAR EHLE 011525Z AUTO 28014KT 230V310 9999 FEW030 SCT040 16/11 Q1007 TEMPO 7000 -SHRA SCT025CB
16:55
V
16 °C 10 km+ - 280° 280° 16 kt METAR EHLE 011455Z AUTO 28016KT 240V310 9999 FEW032 SCT046 16/10 Q1006 TEMPO 7000 -SHRA SCT025CB
16:25
V
17 °C 10 km+ 4,900 ft 280° 280° 14 kt METAR EHLE 011425Z AUTO 28014KT 250V320 9999 FEW031 SCT038 BKN049 17/11 Q1006 TEMPO 7000 -SHRA SCT025CB
15:55
V
16 °C 10 km+ - 270° 270° 15 kt METAR EHLE 011355Z AUTO 27015KT 240V310 9999 NSC 16/11 Q1005 TEMPO 7000 -SHRA SCT025CB
15:25
V
17 °C 10 km+ - 270° 270° 15 kt METAR EHLE 011325Z AUTO 27015KT 240V310 9999 NCD 17/11 Q1005 TEMPO 7000 -SHRA SCT025CB
14:55
V
17 °C 10 km+ - 280° 280° 17 kt METAR EHLE 011255Z AUTO 28017KT 240V320 9999 NCD 17/12 Q1005 TEMPO 7000 -SHRA SCT025CB
14:25
V
17 °C 10 km+ - 260° 260° 15 kt METAR EHLE 011225Z AUTO 26015KT 9999 NCD 17/12 Q1004 TEMPO 7000 -SHRA SCT025CB
13:55
V
17 °C 10 km+ - 270° 270° 14 kt METAR EHLE 011155Z AUTO 27014KT 240V300 9999 FEW024 17/12 Q1004 TEMPO 7000 -SHRA SCT025CB
13:25
V
17 °C 10 km+ - 270° 270° 17 kt METAR EHLE 011125Z AUTO 27017KT 230V310 9999 FEW016CB 17/12 Q1003 TEMPO 7000 -SHRA SCT025CB
12:55
V
17 °C 10 km+ - 270° 270° 19 kt METAR EHLE 011055Z AUTO 27019KT 240V300 9999 NSC 17/12 Q1003 TEMPO 7000 -SHRA SCT025CB
12:25
V
17 °C 10 km+ - 260° 260° 19 kt METAR EHLE 011025Z AUTO 26019KT 240V300 9999 FEW020 SCT025 17/12 Q1002 TEMPO 7000 -SHRA SCT025CB
11:55
M
17 °C 10 km+ 2,900 ft 260° 260° 18 kt METAR EHLE 010955Z AUTO 26018KT 230V290 9999 FEW019 SCT024 BKN029 17/13 Q1002 RERA TEMPO 7000 -SHRA SCT025CB
11:25
V
17 °C 10 km+ - 220° 220° 12 kt METAR EHLE 010925Z AUTO 22012KT 190V260 9999 -RA FEW015 SCT021 17/14 Q1001 TEMPO 7000 -SHRA SCT025CB
10:55
M
16 °C 10 km+ 1,900 ft 240° 240° 11 kt METAR EHLE 010855Z AUTO 24011KT 9999 BKN019 BKN023 BKN032 16/13 Q1001 TEMPO 7000 -SHRA SCT025CB
10:25
V
15 °C 10 km+ - 220° 220° 10 kt METAR EHLE 010825Z AUTO 22010KT 190V250 9999 FEW022 15/14 Q1001 TEMPO 7000 -SHRA SCT025CB
09:55
V
14 °C 10 km+ - 220° 220° 7 kt METAR EHLE 010755Z AUTO 22007KT 190V250 9999 FEW021 14/13 Q1000 TEMPO 7000 -SHRA SCT025CB
09:25
V
14 °C 10 km+ - 220° 220° 10 kt METAR EHLE 010725Z AUTO 22010KT 9999 NCD 14/13 Q1000 TEMPO 7000 -SHRA SCT025CB
08:55
V
13 °C 10 km+ - 220° 220° 9 kt METAR EHLE 010655Z AUTO 22009KT 9999 NCD 13/12 Q1000 TEMPO 7000 -SHRA SCT025CB
08:25
V
13 °C 10 km+ - 220° 220° 9 kt METAR EHLE 010625Z AUTO 22009KT 9999 FEW044 13/12 Q1000 TEMPO 7000 -SHRA SCT025CB
07:55
V
12 °C 10 km+ - 220° 220° 10 kt METAR EHLE 010555Z AUTO 22010KT 9999 FEW020 12/12 Q0999 TEMPO 7000 -SHRA SCT025CB
07:25
M
12 °C 10 km+ 2,400 ft 220° 220° 11 kt METAR EHLE 010525Z AUTO 22011KT 190V250 9999 FEW017 SCT020 BKN024 12/12 Q0999 NOSIG
06:55
M
13 °C 10 km+ 1,600 ft 220° 220° 14 kt METAR EHLE 010455Z AUTO 22014KT 9999 FEW012 BKN016 OVC020 13/12 Q0998
06:25
I
12 °C 10 km+ 800 ft 220° 220° 13 kt METAR EHLE 010425Z AUTO 22013KT 9999 DZ SCT007 BKN008 BKN010 12/12 Q0998
05:55
I
12 °C 10 km+ 800 ft 200° 200° 14 kt METAR EHLE 010355Z AUTO 20014KT 170V230 9999 DZ FEW007 BKN008 OVC009 12/11 Q0998
05:25
M
12 °C 10 km+ 1,000 ft 190° 190° 16 kt METAR EHLE 010325Z AUTO 19016KT 170V230 9999 FEW007 SCT009 BKN010 12/11 Q0998 REDZ
04:55
I
11 °C 5 km 900 ft 200° 200° 16 kt METAR EHLE 010255Z AUTO 20016KT 5000 -SHRA +DZ FEW006 SCT008 BKN009 11/11 Q0998
04:25
M
11 °C 8 km 1,300 ft 190° 190° 18 kt METAR EHLE 010225Z AUTO 19018KT 160V220 8000 -RA FEW007 SCT010 BKN013 FEW015CB 11/11 Q0998
03:55
M
11 °C 8 km 1,200 ft 190° 190° 20 kt METAR EHLE 010155Z AUTO 19020KT 150V220 8000 SHRA FEW007 SCT008 BKN012 FEW015CB 11/10 Q0999 REGR
03:25
M
11 °C 5 km 1,100 ft 180° 180° 21 - 31 kt METAR EHLE 010125Z AUTO 18021G31KT 160V220 5000 RA FEW008 BKN011 BKN014 SCT015CB 11/10 Q0999
02:55
M
11 °C 9 km 1,000 ft 170° 170° 18 kt METAR EHLE 010055Z AUTO 17018KT 140V210 9000 RA FEW007 SCT009 BKN010 BKN015CB 11/10 Q1000
02:25
M
11 °C 9 km 1,500 ft 180° 180° 17 kt METAR EHLE 010025Z AUTO 18017KT 9000 RA FEW009 SCT014 BKN015CB 11/10 Q1000
01:55
M
11 °C 10 km+ 2,400 ft 180° 180° 16 kt METAR EHLE 302355Z AUTO 18016KT 9999 -RA FEW014 SCT020 OVC024 11/10 Q1002
01:25
V
11 °C 10 km+ 4,300 ft 190° 190° 14 kt METAR EHLE 302325Z AUTO 19014KT 160V230 9999 RA SCT015CB OVC043 11/10 Q1002
00:55
M
11 °C 10 km+ 1,500 ft 180° 180° 14 kt METAR EHLE 302255Z AUTO 18014KT 160V220 9999 RA BKN015CB 11/10 Q1003
00:25
V
12 °C 10 km+ - 190° 190° 16 kt METAR EHLE 302225Z AUTO 19016KT 160V220 9999 -RA FEW015CB 12/09 Q1003

September 30, 2022

Time Code Weather Temp. Visibility Ceiling Wind METAR/SPECI
23:55
V
12 °C 10 km+ - 190° 190° 14 kt METAR EHLE 302155Z AUTO 19014KT 150V220 9999 -RADZ NSC 12/09 Q1003
23:25
V
14 °C 10 km+ - 190° 190° 16 kt METAR EHLE 302125Z AUTO 19016KT 150V230 9999 -RA FEW049 14/08 Q1003
22:55
V
14 °C 10 km+ - 190° 190° 15 kt METAR EHLE 302055Z AUTO 19015KT 160V220 9999 NSC 14/08 Q1004
22:25
V
13 °C 10 km+ - 180° 180° 15 kt METAR EHLE 302025Z AUTO 18015KT 150V220 9999 NSC 13/08 Q1004
21:55
V
13 °C 10 km+ - 180° 180° 15 kt METAR EHLE 301955Z AUTO 18015KT 9999 NSC 13/09 Q1005
21:25
V
13 °C 10 km+ - 180° 180° 14 kt METAR EHLE 301925Z AUTO 18014KT 150V210 9999 NSC 13/09 Q1005 NOSIG
20:55
V
13 °C 10 km+ - 180° 180° 12 kt METAR EHLE 301855Z AUTO 18012KT 150V210 9999 NSC 13/09 Q1005 NOSIG
20:25
V
13 °C 10 km+ - 180° 180° 12 kt METAR EHLE 301825Z AUTO 18012KT 9999 NSC 13/09 Q1006 NOSIG
19:55
V
13 °C 10 km+ - 180° 180° 10 kt METAR EHLE 301755Z AUTO 18010KT 9999 NSC 13/09 Q1006 NOSIG
19:25
V
14 °C 10 km+ - 180° 180° 9 kt METAR EHLE 301725Z AUTO 18009KT 9999 NSC 14/09 Q1006 NOSIG
18:55
V
14 °C 10 km+ - 180° 180° 8 kt METAR EHLE 301655Z AUTO 18008KT 9999 FEW045 14/09 Q1007 NOSIG
18:25
V
15 °C 10 km+ 4,300 ft 200° 200° 8 kt METAR EHLE 301625Z AUTO 20008KT 180V240 9999 BKN043 BKN048 15/09 Q1007 NOSIG
17:55
V
16 °C 10 km+ - 210° 210° 12 kt METAR EHLE 301555Z AUTO 21012KT 180V240 9999 NSC 16/08 Q1007 NOSIG
17:25
V
16 °C 10 km+ - 210° 210° 12 kt METAR EHLE 301525Z AUTO 21012KT 180V240 9999 FEW037 16/09 Q1007 NOSIG
16:55
V
16 °C 10 km+ - 200° 200° 12 kt METAR EHLE 301455Z AUTO 20012KT 9999 NSC 16/10 Q1007 NOSIG
Older data

We and third parties follow your internet behavior on our website with cookies. If you continue, we assume you agree with our cookie policy. Learn more